Kathryn B. — WDE2619 — position and weather

sailwx.info

Track history (hours):
 
Tides and Currents Weather Stations Pressure Air Temp Water Temp Dewpoint Dewpoint Depression Visibility Wind Speed Wind Dir Waves Ship Positions

Kathryn B.

Owner: Bernert Barge Lines, Oregon City, OR. More information available from US FCC via Universal Licensing System and Coast Guard Vessel Documentation Center.

Last reported at 2018-Jun-19 22:11 UTC. Time now 2018-Jun-20 07:52 UTC.
Position N 45°37' W 122°01'.

Length 34 m; draft 2.1 m.

Type: Towing. MMSI: 2421136.

Date/timePositionNaut miles runAvg speedWind from/ knotsBaromVisibWave heightAir tempDewpointWater temp
2018-Jun-19 22:11N 45°37' W 122°01'1 5.4
2018-Jun-19 21:58N 45°36' W 122°03'5 6.4
2018-Jun-19 21:08N 45°35' W 122°10'1 6.5
2018-Jun-19 20:55N 45°34' W 122°12'3 6.4
2018-Jun-19 20:29N 45°33' W 122°15'3 6.2
2018-Jun-19 20:00N 45°33' W 122°20'3 5.6
2018-Jun-19 19:30N 45°35' W 122°23'3 5.8
2018-Jun-19 19:00N 45°34' W 122°27'3 6.1
2018-Jun-19 18:30N 45°35' W 122°31'3 6.3
2018-Jun-19 18:00N 45°36' W 122°35'3 6.4
2018-Jun-19 17:30N 45°37' W 122°40'3 6.5
2018-Jun-19 17:01N 45°39' W 122°44'3 3.6
2018-Jun-19 16:07N 45°37' W 122°47'0 0.0
2018-Jun-19 16:01N 45°37' W 122°47'0 0.0
2018-Jun-19 15:16N 45°37' W 122°47'0 1.9
2018-Jun-19 15:01N 45°37' W 122°47'2 3.3
2018-Jun-19 14:22N 45°35' W 122°45'1 3.6
2018-Jun-19 14:00N 45°34' W 122°44'0 0.0
2018-Jun-19 13:30N 45°34' W 122°44'0 0.0
2018-Jun-19 13:00N 45°34' W 122°44'0 0.0
2018-Jun-19 12:30N 45°34' W 122°44'2 4.7
2018-Jun-19 12:00N 45°36' W 122°46'2 3.1
2018-Jun-19 11:28N 45°37' W 122°47'4 7.8
2018-Jun-19 11:00N 45°41' W 122°46'4 7.6
2018-Jun-19 10:30N 45°44' W 122°46'4 7.5
2018-Jun-19 10:00N 45°48' W 122°47'4 7.3
2018-Jun-19 09:30N 45°52' W 122°47'4 7.1
2018-Jun-19 09:01N 45°55' W 122°49'4 7.1
2018-Jun-19 08:30N 45°58' W 122°50'4 7.4
2018-Jun-19 08:01N 46°02' W 122°53'4 7.3
2018-Jun-19 07:31N 46°05' W 122°54'3 5.4
2018-Jun-19 07:00N 46°07' W 122°58'2 0.1
2018-Jun-18 14:59N 46°05' W 122°56'2 3.9
2018-Jun-18 14:30N 46°07' W 122°58'0 0.1
2018-Jun-18 14:01N 46°07' W 122°58'2 3.6
2018-Jun-18 13:30N 46°06' W 122°56'0 0.2
2018-Jun-18 13:00N 46°06' W 122°56'0 0.8
2018-Jun-18 12:30N 46°05' W 122°56'0 0.0
2018-Jun-18 12:00N 46°05' W 122°56'0 0.0
2018-Jun-18 11:30N 46°05' W 122°56'0 0.0
2018-Jun-18 11:01N 46°05' W 122°56'0 0.0
2018-Jun-18 10:30N 46°05' W 122°56'0 0.0
2018-Jun-18 10:00N 46°05' W 122°56'0 0.0
2018-Jun-18 09:30N 46°05' W 122°56'0 0.0
2018-Jun-18 09:01N 46°05' W 122°56'0 0.0
2018-Jun-18 08:30N 46°05' W 122°56'0 0.0
2018-Jun-18 08:00N 46°05' W 122°56'0 0.0
2018-Jun-18 07:30N 46°05' W 122°56'0 0.0
2018-Jun-18 06:59N 46°05' W 122°56'0 0.0
2018-Jun-18 06:30N 46°05' W 122°56'0 0.0
2018-Jun-18 06:00N 46°05' W 122°56'0 0.0
2018-Jun-18 05:31N 46°05' W 122°56'0 0.0
2018-Jun-18 05:01N 46°05' W 122°56'0 0.8
2018-Jun-18 04:30N 46°06' W 122°56'3 5.4
2018-Jun-18 04:00N 46°04' W 122°53'3 6.9
2018-Jun-18 03:31N 46°01' W 122°52'3 6.9
2018-Jun-18 03:01N 45°58' W 122°49'7 7.3
2018-Jun-18 02:06N 45°51' W 122°47'1 7.8
2018-Jun-18 02:01N 45°50' W 122°47'4 7.6
2018-Jun-18 01:30N 45°47' W 122°46'4 8.0
2018-Jun-18 01:01N 45°43' W 122°46'4 7.7
2018-Jun-18 00:31N 45°39' W 122°45'4 8.3
2018-Jun-18 00:00N 45°37' W 122°40'3 6.7
2018-Jun-17 23:30N 45°36' W 122°35'4 8.1
2018-Jun-17 23:00N 45°35' W 122°30'4 7.9
2018-Jun-17 22:30N 45°34' W 122°24'4 7.8
2018-Jun-17 22:01N 45°33' W 122°19'6 7.9
2018-Jun-17 21:18N 45°34' W 122°11'  
2018-Jun-12 08:44N 45°37' W 122°01'1 4.2
2018-Jun-12 08:25N 45°36' W 122°03'3 6.6
2018-Jun-12 07:54N 45°35' W 122°07'2 6.4
2018-Jun-12 07:31N 45°35' W 122°11'3 6.2
2018-Jun-12 06:57N 45°33' W 122°15'3 6.0
2018-Jun-12 06:30N 45°33' W 122°19'3 5.5
2018-Jun-12 06:00N 45°34' W 122°22'3 5.1
2018-Jun-12 05:30N 45°34' W 122°26'3 5.5
2018-Jun-12 05:00N 45°35' W 122°29'3 6.0
2018-Jun-12 04:29N 45°36' W 122°34'3 5.7
2018-Jun-12 04:00N 45°36' W 122°37'3 5.8
2018-Jun-12 03:30N 45°38' W 122°41'3 6.4
2018-Jun-12 03:00N 45°39' W 122°45'5 6.7
2018-Jun-12 02:20N 45°44' W 122°46'2 5.7
2018-Jun-12 02:01N 45°45' W 122°46'3 6.3
2018-Jun-12 01:31N 45°48' W 122°47'3 6.3
2018-Jun-12 01:00N 45°52' W 122°47'3 5.9
2018-Jun-12 00:30N 45°54' W 122°49'0 0.0
2018-Jun-12 00:00N 45°54' W 122°49'3 5.4
2018-Jun-11 23:31N 45°57' W 122°49'4 8.1
2018-Jun-11 23:00N 46°01' W 122°52'4 8.0
2018-Jun-11 22:31N 46°04' W 122°54'4 6.7
2018-Jun-11 21:52N 46°07' W 122°58'1 3.5
2018-Jun-11 21:30N 46°06' W 122°57'1 2.0
2018-Jun-11 21:00N 46°05' W 122°56'0 0.0
2018-Jun-11 20:29N 46°05' W 122°56'2 4.1
2018-Jun-11 20:01N 46°07' W 122°58'0 0.3
2018-Jun-11 19:30N 46°07' W 122°58'3 5.2
2018-Jun-11 19:00N 46°05' W 122°55'4 8.6
2018-Jun-11 18:30N 46°01' W 122°52'7 8.7
2018-Jun-11 17:42N 45°55' W 122°49'2 9.0
2018-Jun-11 17:30N 45°53' W 122°48'4 8.7
2018-Jun-11 17:00N 45°49' W 122°48'4 8.5
2018-Jun-11 16:30N 45°45' W 122°46'4 8.6
2018-Jun-11 15:59N 45°40' W 122°46'4 8.0
2018-Jun-11 15:30N 45°38' W 122°42'3 5.3
2018-Jun-11 15:00N 45°37' W 122°39'4 8.5
2018-Jun-11 14:29N 45°36' W 122°33'4 8.7
2018-Jun-11 13:58N 45°34' W 122°27'4 8.4
2018-Jun-11 13:30N 45°34' W 122°21'4 8.2
2018-Jun-11 13:00N 45°33' W 122°15'4 8.4
2018-Jun-11 12:30N 45°35' W 122°10'7 0.4
2018-Jun-10 18:23N 45°37' W 122°01'2 4.7
2018-Jun-10 17:59N 45°36' W 122°03'4 6.4
2018-Jun-10 17:24N 45°35' W 122°09'3 6.5
2018-Jun-10 16:57N 45°34' W 122°12'3 6.3
2018-Jun-10 16:30N 45°33' W 122°16'3 6.1
2018-Jun-10 15:58N 45°34' W 122°21'2 4.9
2018-Jun-10 15:30N 45°34' W 122°23'3 5.3
2018-Jun-10 15:00N 45°34' W 122°27'3 5.9
2018-Jun-10 14:31N 45°35' W 122°31'6 6.0
2018-Jun-10 13:31N 45°37' W 122°39'3 6.1
2018-Jun-10 13:00N 45°38' W 122°43'1 3.0
2018-Jun-10 12:30N 45°39' W 122°45'0 0.0
2018-Jun-10 12:00N 45°39' W 122°45'0 0.0
2018-Jun-10 11:31N 45°39' W 122°45'1 2.8
2018-Jun-10 11:00N 45°40' W 122°46'4 7.1
2018-Jun-10 10:30N 45°44' W 122°46'4 7.1
2018-Jun-10 10:00N 45°47' W 122°47'4 7.0
2018-Jun-10 09:30N 45°51' W 122°47'4 7.3
2018-Jun-10 09:00N 45°54' W 122°49'4 7.3
2018-Jun-10 08:30N 45°58' W 122°49'4 7.7
2018-Jun-10 08:01N 46°01' W 122°52'5 6.8
2018-Jun-10 07:16N 46°05' W 122°56'  
Track history (hours):
 
Tides and Currents Weather Stations Pressure Air Temp Water Temp Dewpoint Dewpoint Depression Visibility Wind Speed Wind Dir Waves Ship Positions

Kathryn B.

Owner: Bernert Barge Lines, Oregon City, OR. More information available from US FCC via Universal Licensing System and Coast Guard Vessel Documentation Center.

Last reported at 2018-Jun-19 22:11 UTC. Time now 2018-Jun-20 07:52 UTC.
Position N 45°37' W 122°01'.

Length 34 m; draft 2.1 m.

Type: Towing. MMSI: 2421136.

Date/timePositionNaut miles runAvg speedWind from/ knotsBaromVisibWave heightAir tempDewpointWater temp
2018-Jun-19 22:11N 45°37' W 122°01'1 5.4
2018-Jun-19 21:58N 45°36' W 122°03'5 6.4
2018-Jun-19 21:08N 45°35' W 122°10'1 6.5
2018-Jun-19 20:55N 45°34' W 122°12'3 6.4
2018-Jun-19 20:29N 45°33' W 122°15'3 6.2
2018-Jun-19 20:00N 45°33' W 122°20'3 5.6
2018-Jun-19 19:30N 45°35' W 122°23'3 5.8
2018-Jun-19 19:00N 45°34' W 122°27'3 6.1
2018-Jun-19 18:30N 45°35' W 122°31'3 6.3
2018-Jun-19 18:00N 45°36' W 122°35'3 6.4
2018-Jun-19 17:30N 45°37' W 122°40'3 6.5
2018-Jun-19 17:01N 45°39' W 122°44'3 3.6
2018-Jun-19 16:07N 45°37' W 122°47'0 0.0
2018-Jun-19 16:01N 45°37' W 122°47'0 0.0
2018-Jun-19 15:16N 45°37' W 122°47'0 1.9
2018-Jun-19 15:01N 45°37' W 122°47'2 3.3
2018-Jun-19 14:22N 45°35' W 122°45'1 3.6
2018-Jun-19 14:00N 45°34' W 122°44'0 0.0
2018-Jun-19 13:30N 45°34' W 122°44'0 0.0
2018-Jun-19 13:00N 45°34' W 122°44'0 0.0
2018-Jun-19 12:30N 45°34' W 122°44'2 4.7
2018-Jun-19 12:00N 45°36' W 122°46'2 3.1
2018-Jun-19 11:28N 45°37' W 122°47'4 7.8
2018-Jun-19 11:00N 45°41' W 122°46'4 7.6
2018-Jun-19 10:30N 45°44' W 122°46'4 7.5
2018-Jun-19 10:00N 45°48' W 122°47'4 7.3
2018-Jun-19 09:30N 45°52' W 122°47'4 7.1
2018-Jun-19 09:01N 45°55' W 122°49'4 7.1
2018-Jun-19 08:30N 45°58' W 122°50'4 7.4
2018-Jun-19 08:01N 46°02' W 122°53'4 7.3
2018-Jun-19 07:31N 46°05' W 122°54'3 5.4
2018-Jun-19 07:00N 46°07' W 122°58'2 0.1
2018-Jun-18 14:59N 46°05' W 122°56'2 3.9
2018-Jun-18 14:30N 46°07' W 122°58'0 0.1
2018-Jun-18 14:01N 46°07' W 122°58'2 3.6
2018-Jun-18 13:30N 46°06' W 122°56'0 0.2
2018-Jun-18 13:00N 46°06' W 122°56'0 0.8
2018-Jun-18 12:30N 46°05' W 122°56'0 0.0
2018-Jun-18 12:00N 46°05' W 122°56'0 0.0
2018-Jun-18 11:30N 46°05' W 122°56'0 0.0
2018-Jun-18 11:01N 46°05' W 122°56'0 0.0
2018-Jun-18 10:30N 46°05' W 122°56'0 0.0
2018-Jun-18 10:00N 46°05' W 122°56'0 0.0
2018-Jun-18 09:30N 46°05' W 122°56'0 0.0
2018-Jun-18 09:01N 46°05' W 122°56'0 0.0
2018-Jun-18 08:30N 46°05' W 122°56'0 0.0
2018-Jun-18 08:00N 46°05' W 122°56'0 0.0
2018-Jun-18 07:30N 46°05' W 122°56'0 0.0
2018-Jun-18 06:59N 46°05' W 122°56'0 0.0
2018-Jun-18 06:30N 46°05' W 122°56'0 0.0
2018-Jun-18 06:00N 46°05' W 122°56'0 0.0
2018-Jun-18 05:31N 46°05' W 122°56'0 0.0
2018-Jun-18 05:01N 46°05' W 122°56'0 0.8
2018-Jun-18 04:30N 46°06' W 122°56'3 5.4
2018-Jun-18 04:00N 46°04' W 122°53'3 6.9
2018-Jun-18 03:31N 46°01' W 122°52'3 6.9
2018-Jun-18 03:01N 45°58' W 122°49'7 7.3
2018-Jun-18 02:06N 45°51' W 122°47'1 7.8
2018-Jun-18 02:01N 45°50' W 122°47'4 7.6
2018-Jun-18 01:30N 45°47' W 122°46'4 8.0
2018-Jun-18 01:01N 45°43' W 122°46'4 7.7
2018-Jun-18 00:31N 45°39' W 122°45'4 8.3
2018-Jun-18 00:00N 45°37' W 122°40'3 6.7
2018-Jun-17 23:30N 45°36' W 122°35'4 8.1
2018-Jun-17 23:00N 45°35' W 122°30'4 7.9
2018-Jun-17 22:30N 45°34' W 122°24'4 7.8
2018-Jun-17 22:01N 45°33' W 122°19'6 7.9
2018-Jun-17 21:18N 45°34' W 122°11'  
2018-Jun-12 08:44N 45°37' W 122°01'1 4.2
2018-Jun-12 08:25N 45°36' W 122°03'3 6.6
2018-Jun-12 07:54N 45°35' W 122°07'2 6.4
2018-Jun-12 07:31N 45°35' W 122°11'3 6.2
2018-Jun-12 06:57N 45°33' W 122°15'3 6.0
2018-Jun-12 06:30N 45°33' W 122°19'3 5.5
2018-Jun-12 06:00N 45°34' W 122°22'3 5.1
2018-Jun-12 05:30N 45°34' W 122°26'3 5.5
2018-Jun-12 05:00N 45°35' W 122°29'3 6.0
2018-Jun-12 04:29N 45°36' W 122°34'3 5.7
2018-Jun-12 04:00N 45°36' W 122°37'3 5.8
2018-Jun-12 03:30N 45°38' W 122°41'3 6.4
2018-Jun-12 03:00N 45°39' W 122°45'5 6.7
2018-Jun-12 02:20N 45°44' W 122°46'2 5.7
2018-Jun-12 02:01N 45°45' W 122°46'3 6.3
2018-Jun-12 01:31N 45°48' W 122°47'3 6.3
2018-Jun-12 01:00N 45°52' W 122°47'3 5.9
2018-Jun-12 00:30N 45°54' W 122°49'0 0.0
2018-Jun-12 00:00N 45°54' W 122°49'3 5.4
2018-Jun-11 23:31N 45°57' W 122°49'4 8.1
2018-Jun-11 23:00N 46°01' W 122°52'4 8.0
2018-Jun-11 22:31N 46°04' W 122°54'4 6.7
2018-Jun-11 21:52N 46°07' W 122°58'1 3.5
2018-Jun-11 21:30N 46°06' W 122°57'1 2.0
2018-Jun-11 21:00N 46°05' W 122°56'0 0.0
2018-Jun-11 20:29N 46°05' W 122°56'2 4.1
2018-Jun-11 20:01N 46°07' W 122°58'0 0.3
2018-Jun-11 19:30N 46°07' W 122°58'3 5.2
2018-Jun-11 19:00N 46°05' W 122°55'4 8.6
2018-Jun-11 18:30N 46°01' W 122°52'7 8.7
2018-Jun-11 17:42N 45°55' W 122°49'2 9.0
2018-Jun-11 17:30N 45°53' W 122°48'4 8.7
2018-Jun-11 17:00N 45°49' W 122°48'4 8.5
2018-Jun-11 16:30N 45°45' W 122°46'4 8.6
2018-Jun-11 15:59N 45°40' W 122°46'4 8.0
2018-Jun-11 15:30N 45°38' W 122°42'3 5.3
2018-Jun-11 15:00N 45°37' W 122°39'4 8.5
2018-Jun-11 14:29N 45°36' W 122°33'4 8.7
2018-Jun-11 13:58N 45°34' W 122°27'4 8.4
2018-Jun-11 13:30N 45°34' W 122°21'4 8.2
2018-Jun-11 13:00N 45°33' W 122°15'4 8.4
2018-Jun-11 12:30N 45°35' W 122°10'7 0.4
2018-Jun-10 18:23N 45°37' W 122°01'2 4.7
2018-Jun-10 17:59N 45°36' W 122°03'4 6.4
2018-Jun-10 17:24N 45°35' W 122°09'3 6.5
2018-Jun-10 16:57N 45°34' W 122°12'3 6.3
2018-Jun-10 16:30N 45°33' W 122°16'3 6.1
2018-Jun-10 15:58N 45°34' W 122°21'2 4.9
2018-Jun-10 15:30N 45°34' W 122°23'3 5.3
2018-Jun-10 15:00N 45°34' W 122°27'3 5.9
2018-Jun-10 14:31N 45°35' W 122°31'6 6.0
2018-Jun-10 13:31N 45°37' W 122°39'3 6.1
2018-Jun-10 13:00N 45°38' W 122°43'1 3.0
2018-Jun-10 12:30N 45°39' W 122°45'0 0.0
2018-Jun-10 12:00N 45°39' W 122°45'0 0.0
2018-Jun-10 11:31N 45°39' W 122°45'1 2.8
2018-Jun-10 11:00N 45°40' W 122°46'4 7.1
2018-Jun-10 10:30N 45°44' W 122°46'4 7.1
2018-Jun-10 10:00N 45°47' W 122°47'4 7.0
2018-Jun-10 09:30N 45°51' W 122°47'4 7.3
2018-Jun-10 09:00N 45°54' W 122°49'4 7.3
2018-Jun-10 08:30N 45°58' W 122°49'4 7.7
2018-Jun-10 08:01N 46°01' W 122°52'5 6.8
2018-Jun-10 07:16N 46°05' W 122°56'  

Dump ship's entire track history